Kurtistown, HI (96760)

6:30 AM HST on May 26, 2015 (GMT -1000)
Hawaiian Paradies Park | | Change Station
CLOSE
Current Station
Personal Weather Station
Location: Keaau, HI
Elevation: 344 ft
Nearby Weather Stations

Elev 344 ft 19.57 °N, 154.99 °W | Updated 9 minutes ago

Overcast
Overcast
67.1 °F
Feels Like 67.1 °F
N
0.0
Wind Variable Wind from South

Today
High -- | Low -- °F
--% Chance of Precip.
Yesterday
High -- | Low -- °F
Precip. -- in
5:41 AM 6:52 PM
First Quarter, 59% visible
Pressure 29.92 in
Visibility 10.0 miles
Clouds Mostly Cloudy 4600 ft
Overcast 5500 ft
Dew Point 64 °F
Humidity 90%
Rainfall 0.00 in
Snow Depth Not available.
UV 0 out of 12
Pollen Not available.
Air Quality Not available.
Flu Activity Local Activity
METAR PHTO 261553Z 23006KT 10SM BKN046 OVC055 21/15 A2993 RMK AO2 SLP132 T02060150 $

More Conditions Fewer Conditions

Pressure 29.92 in
Visibility 10.0 miles
Clouds Mostly Cloudy 4600 ft
Overcast 5500 ft
Dew Point 64 °F
Humidity 90%
Rainfall 0.00 in
Snow Depth Not available.
UV 0 out of 12
Pollen Not available.
Air Quality Not available.
Flu Activity Local Activity
METAR PHTO 261553Z 23006KT 10SM BKN046 OVC055 21/15 A2993 RMK AO2 SLP132 T02060150 $

More Conditions Fewer Conditions

10-Day Weather Forecast

Almanac

Astronomy

May. 26, 2015 Rise Set
Actual Time
Civil Twilight
Nautical Twilight
Astronomical Twilight
Moon
Length of Visible Light
Length of Day
Tomorrow will be .
, % of the Moon is Illuminated

Today's Extremes

State Highs State Lows

Community

WunderPhotos

Upload Photos

1,824,379 photos uploaded!

WunderBlogs® & News

Nearby

Air Quality

  Air Quality AQ Index Pollutant
Not available.

Snow Depth

Station Depth Elevation

Earthquake Activity

City Distance Mag. Time & Date
Minimum magnitude displayed is 2.5.

Coastal Water Temperatures

Place Temperature

Stations

Nearby Weather Stations

Station Location Temp. Windchill Dew Point Humidity Wind Precip. Elev Updated Type